createdAt,value
2024-05-09T00:00:40.672Z,87.6997
2024-05-09T00:01:47.944Z,87.6310
2024-05-09T00:02:54.199Z,87.5257
2024-05-09T00:04:02.456Z,87.6722
2024-05-09T00:05:09.421Z,87.6570
2024-05-09T00:06:15.546Z,87.7913
2024-05-09T00:07:21.709Z,87.8767
2024-05-09T00:08:28.884Z,88.0232
2024-05-09T00:09:35.216Z,87.9011
2024-05-09T00:10:41.673Z,87.9957
2024-05-09T00:11:48.011Z,87.9728
2024-05-09T00:12:54.293Z,87.9545
2024-05-09T00:14:00.907Z,88.0323
2024-05-09T00:15:07.253Z,88.0476
2024-05-09T00:16:13.339Z,87.9911
2024-05-09T00:17:19.578Z,88.0385
2024-05-09T00:18:25.873Z,88.1376
2024-05-09T00:19:32.265Z,88.2765
2024-05-09T00:20:40.841Z,88.2933
2024-05-09T00:21:50.448Z,88.3253
2024-05-09T00:22:57.232Z,88.4306
2024-05-09T00:24:03.221Z,88.4077
2024-05-09T00:25:09.710Z,88.3909
2024-05-09T00:26:15.837Z,88.3726
2024-05-09T00:27:22.047Z,88.4077
2024-05-09T00:28:28.814Z,88.5771
2024-05-09T00:29:35.041Z,88.6274
2024-05-09T00:30:41.273Z,88.6610
2024-05-09T00:32:03.187Z,88.8014
2024-05-09T00:33:10.780Z,88.8609
2024-05-09T00:34:18.859Z,88.9937
2024-05-09T00:35:25.936Z,88.9586
2024-05-09T00:36:32.661Z,88.9570
2024-05-09T00:38:05.047Z,88.9158
2024-05-09T00:39:12.180Z,88.9570
2024-05-09T00:40:27.086Z,88.8945
2024-05-09T00:41:31.763Z,88.8334
2024-05-09T00:42:38.613Z,88.6793
2024-05-09T00:43:45.535Z,88.7343
2024-05-09T00:44:57.188Z,88.8533
2024-05-09T00:46:05.409Z,88.7892
2024-05-09T00:47:15.474Z,88.6793
2024-05-09T00:48:22.763Z,88.7373
2024-05-09T00:49:31.556Z,88.8258
2024-05-09T00:50:38.810Z,88.9769
2024-05-09T00:51:49.414Z,89.1325
2024-05-09T00:52:56.623Z,89.0211
2024-05-09T00:54:17.906Z,89.0043
2024-05-09T00:55:25.517Z,89.1218
2024-05-09T00:56:38.508Z,89.1829
2024-05-09T00:57:45.591Z,89.0913
2024-05-09T00:58:52.210Z,88.8991
2024-05-09T01:00:09.899Z,88.8945
2024-05-09T01:01:19.610Z,88.8899
2024-05-09T01:02:41.205Z,88.8762
2024-05-09T01:03:55.081Z,88.8533
2024-05-09T01:05:02.020Z,89.0272
2024-05-09T01:06:09.603Z,88.9494
2024-05-09T01:07:17.720Z,88.8609
2024-05-09T01:08:25.548Z,88.8899
2024-05-09T01:09:35.692Z,88.8701
2024-05-09T01:10:45.189Z,88.6061
2024-05-09T01:11:55.690Z,88.6595
2024-05-09T01:13:05.106Z,88.6686
2024-05-09T01:14:13.670Z,88.6427
2024-05-09T01:15:36.728Z,88.6839
2024-05-09T01:16:44.728Z,88.6702
2024-05-09T01:18:06.646Z,88.6885
2024-05-09T01:20:41.677Z,88.4718
2024-05-09T01:21:49.958Z,88.4459
2024-05-09T01:23:00.022Z,88.5237
2024-05-09T01:24:10.414Z,88.4718
2024-05-09T01:25:24.028Z,88.4916
2024-05-09T01:26:32.195Z,88.3452
2024-05-09T01:27:41.202Z,88.2033
2024-05-09T01:28:49.185Z,88.2216
2024-05-09T01:32:19.649Z,88.1346
2024-05-09T01:32:19.649Z,88.1941
2024-05-09T01:33:26.567Z,88.4230
2024-05-09T01:34:36.052Z,88.3360
2024-05-09T01:35:43.636Z,88.3314
2024-05-09T01:39:11.727Z,88.2246
2024-05-09T01:39:11.727Z,88.2109
2024-05-09T01:43:27.820Z,88.3253
2024-05-09T01:43:27.820Z,88.3818
2024-05-09T01:44:42.551Z,88.3162
2024-05-09T01:45:50.686Z,88.2933
2024-05-09T01:47:28.193Z,88.1056
2024-05-09T01:51:20.006Z,87.8050
2024-05-09T01:51:20.006Z,87.9744
2024-05-09T01:52:29.705Z,87.7775
2024-05-09T01:53:40.593Z,87.8553
2024-05-09T01:55:40.583Z,87.7989
2024-05-09T02:04:39.678Z,87.6081
2024-05-09T02:04:39.678Z,87.6478
2024-05-09T02:06:25.931Z,87.8401
2024-05-09T02:07:31.911Z,87.7852
2024-05-09T02:08:50.123Z,87.6890
2024-05-09T02:10:00.264Z,87.7623
2024-05-09T02:11:06.976Z,87.7806
2024-05-09T02:12:13.689Z,87.7577
2024-05-09T02:13:25.341Z,87.8141
2024-05-09T02:14:38.766Z,87.8264
2024-05-09T02:19:34.471Z,87.6448
2024-05-09T02:20:41.943Z,87.7729
2024-05-09T02:21:58.592Z,87.8355
2024-05-09T02:23:21.720Z,87.7119
2024-05-09T02:25:48.593Z,87.4418
2024-05-09T02:26:55.613Z,87.5242
2024-05-09T02:28:26.754Z,87.6631
2024-05-09T02:29:41.757Z,87.5624
2024-05-09T02:31:16.720Z,87.7592
2024-05-09T02:32:26.993Z,87.5807
2024-05-09T02:33:56.973Z,87.6081
2024-05-09T02:35:04.602Z,87.7226
2024-05-09T02:43:25.973Z,87.9133
2024-05-09T02:43:25.973Z,87.7989
2024-05-09T02:44:42.754Z,88.0018
2024-05-09T02:48:21.934Z,88.0705
2024-05-09T02:48:21.934Z,88.0781
2024-05-09T02:49:37.807Z,88.0598
2024-05-09T02:52:22.792Z,88.1254
2024-05-09T02:53:42.771Z,88.1666
2024-05-09T02:54:57.628Z,88.2445
2024-05-09T02:56:10.823Z,88.2704
2024-05-09T02:57:52.771Z,88.2429
2024-05-09T03:03:50.460Z,88.2170
2024-05-09T03:03:50.460Z,88.3543
2024-05-09T03:05:02.837Z,88.3986
2024-05-09T03:08:38.977Z,88.4306
2024-05-09T03:08:38.977Z,88.4443
2024-05-09T03:09:59.099Z,88.3864
2024-05-09T03:13:23.131Z,88.1834
2024-05-09T03:13:23.131Z,88.3680
2024-05-09T03:19:44.481Z,88.4031
2024-05-09T03:19:44.481Z,88.4047
2024-05-09T03:21:07.366Z,88.4855
2024-05-09T03:23:05.799Z,88.4993
2024-05-09T03:26:39.721Z,88.4810
2024-05-09T03:26:39.721Z,88.5313
2024-05-09T03:28:10.271Z,88.4871
2024-05-09T03:30:15.452Z,88.5039
2024-05-09T03:31:26.275Z,88.6229
2024-05-09T03:32:59.316Z,88.6290
2024-05-09T03:37:38.079Z,88.5725
2024-05-09T03:37:38.079Z,88.7282
2024-05-09T03:41:30.498Z,88.6686
2024-05-09T03:41:30.498Z,88.6412
2024-05-09T03:52:51.967Z,88.6748
2024-05-09T03:52:51.967Z,88.5740
2024-05-09T03:54:24.210Z,88.6839
2024-05-09T03:55:45.915Z,88.8258
2024-05-09T03:58:04.904Z,88.8014
2024-05-09T03:59:32.839Z,88.7571
2024-05-09T04:01:14.384Z,88.8334
2024-05-09T04:02:20.909Z,88.8746
2024-05-09T04:03:27.364Z,88.9357
2024-05-09T04:04:33.886Z,89.0211
2024-05-09T04:05:41.078Z,88.8838
2024-05-09T04:06:49.374Z,89.0227
2024-05-09T04:07:56.403Z,89.1463
2024-05-09T04:09:02.438Z,89.0639
2024-05-09T04:10:11.278Z,89.0303
2024-05-09T04:11:20.946Z,88.9204
2024-05-09T04:12:27.938Z,89.1051
2024-05-09T04:13:34.123Z,89.1768
2024-05-09T04:14:40.280Z,89.0761
2024-05-09T04:15:46.409Z,88.9525
2024-05-09T04:16:52.517Z,88.8670
2024-05-09T04:17:58.847Z,88.7510
2024-05-09T04:19:05.053Z,88.7236
2024-05-09T04:20:21.059Z,88.6839
2024-05-09T04:21:23.134Z,88.6778
2024-05-09T04:22:29.082Z,88.6778
2024-05-09T04:23:35.875Z,88.7388
2024-05-09T04:24:43.118Z,88.6412
2024-05-09T04:25:50.052Z,88.5405
2024-05-09T04:27:11.069Z,88.4047
2024-05-09T04:28:17.109Z,88.4413
2024-05-09T04:29:23.354Z,88.4825
2024-05-09T04:30:36.758Z,88.4825
2024-05-09T04:31:41.448Z,88.4718
2024-05-09T04:32:47.740Z,88.3635
2024-05-09T04:33:53.956Z,88.1972
2024-05-09T04:35:00.240Z,88.3497
2024-05-09T04:36:06.438Z,88.4123
2024-05-09T04:37:13.357Z,88.4627
2024-05-09T04:38:20.449Z,88.4825
2024-05-09T04:39:26.639Z,88.3207
2024-05-09T04:40:36.071Z,88.3024
2024-05-09T04:41:43.700Z,88.4215
2024-05-09T04:42:50.399Z,88.4672
2024-05-09T04:43:56.629Z,88.4398
2024-05-09T04:45:02.776Z,88.3299
2024-05-09T04:46:08.821Z,88.3497
2024-05-09T04:47:15.876Z,88.3269
2024-05-09T04:48:22.220Z,88.2673
2024-05-09T04:49:28.612Z,88.2475
2024-05-09T04:50:38.190Z,88.1148
2024-05-09T04:51:47.441Z,88.0156
2024-05-09T04:52:53.568Z,88.0339
2024-05-09T04:53:59.765Z,88.1514
2024-05-09T04:55:05.938Z,88.1605
2024-05-09T04:56:12.127Z,88.0018
2024-05-09T04:57:18.203Z,87.9088
2024-05-09T04:58:24.476Z,87.9377
2024-05-09T04:59:30.599Z,87.9286
2024-05-09T05:00:38.302Z,87.7943
2024-05-09T05:01:45.806Z,87.6219
2024-05-09T05:02:52.195Z,87.7348
2024-05-09T05:03:58.646Z,87.7592
2024-05-09T05:05:05.040Z,87.8767
2024-05-09T05:06:13.884Z,87.8676
2024-05-09T05:07:20.042Z,87.8920
2024-05-09T05:08:26.130Z,87.8187
2024-05-09T05:09:32.338Z,87.7455
2024-05-09T05:10:38.492Z,87.6173
2024-05-09T05:11:44.654Z,87.8645
2024-05-09T05:12:51.436Z,87.8721
2024-05-09T05:13:57.527Z,87.8264
2024-05-09T05:15:03.774Z,87.7867
2024-05-09T05:16:10.174Z,87.9561
2024-05-09T05:17:16.804Z,88.0415
2024-05-09T05:18:24.051Z,87.8645
2024-05-09T05:19:31.254Z,87.9866
2024-05-09T05:20:37.954Z,87.8874
2024-05-09T05:21:44.061Z,87.9789
2024-05-09T05:22:51.034Z,87.9683
2024-05-09T05:23:57.125Z,87.8172
2024-05-09T05:25:03.110Z,87.8233
2024-05-09T05:26:09.172Z,87.7714
2024-05-09T05:27:15.355Z,87.7501
2024-05-09T05:28:21.532Z,87.7440
2024-05-09T05:29:27.853Z,87.7501
2024-05-09T05:30:35.015Z,87.7501
2024-05-09T05:31:41.622Z,87.7913
2024-05-09T05:32:47.908Z,87.6173
2024-05-09T05:33:54.183Z,87.8401
2024-05-09T05:35:00.341Z,88.0095
2024-05-09T05:36:06.488Z,87.9362
2024-05-09T05:37:12.568Z,88.0339
2024-05-09T05:38:19.159Z,88.0842
2024-05-09T05:39:28.827Z,88.0919
2024-05-09T05:40:37.562Z,87.9728
2024-05-09T05:41:45.093Z,88.0186
2024-05-09T05:42:51.174Z,88.0430
2024-05-09T05:43:57.331Z,87.8325
2024-05-09T05:45:05.089Z,87.8828
2024-05-09T05:46:12.866Z,88.0552
2024-05-09T05:47:22.108Z,87.9362
2024-05-09T05:48:31.012Z,87.8828
2024-05-09T05:49:37.894Z,88.0110
2024-05-09T05:50:46.006Z,87.8187
2024-05-09T05:51:52.391Z,87.6844
2024-05-09T05:52:58.676Z,87.7577
2024-05-09T05:54:04.887Z,87.8676
2024-05-09T05:55:11.034Z,87.7226
2024-05-09T05:56:17.215Z,87.8599
2024-05-09T05:57:23.348Z,87.9316
2024-05-09T05:58:29.495Z,87.8950
2024-05-09T05:59:36.442Z,87.6402
2024-05-09T06:00:43.423Z,87.6890
2024-05-09T06:01:49.608Z,87.6722
2024-05-09T06:02:55.839Z,87.4693
2024-05-09T06:04:01.918Z,87.5303
2024-05-09T06:05:08.218Z,87.6890
2024-05-09T06:06:14.479Z,87.7806
2024-05-09T06:07:21.433Z,87.8904
2024-05-09T06:08:30.144Z,87.9240
2024-05-09T06:09:36.958Z,87.6997
2024-05-09T06:10:43.122Z,87.7043
2024-05-09T06:11:49.472Z,87.5853
2024-05-09T06:12:55.555Z,87.3426
2024-05-09T06:14:01.673Z,87.2557
2024-05-09T06:15:07.704Z,87.2221
2024-05-09T06:16:13.811Z,87.2465
2024-05-09T06:17:20.038Z,87.4388
2024-05-09T06:18:26.649Z,87.5074
2024-05-09T06:19:33.205Z,87.2877
2024-05-09T06:20:39.978Z,87.2038
2024-05-09T06:21:48.451Z,87.0085
2024-05-09T06:22:55.183Z,86.9215
2024-05-09T06:24:10.576Z,86.7430
2024-05-09T06:25:39.344Z,86.4256
2024-05-09T06:26:46.042Z,86.4637
2024-05-09T06:27:52.137Z,86.3844
2024-05-09T06:28:58.334Z,86.3767
2024-05-09T06:30:05.201Z,86.1692
2024-05-09T06:31:11.483Z,85.7206
2024-05-09T06:32:18.108Z,85.9358
2024-05-09T06:33:24.610Z,85.5436
2024-05-09T06:34:30.902Z,85.2872
2024-05-09T06:35:40.203Z,84.9943
2024-05-09T06:36:46.600Z,84.8920
2024-05-09T06:37:52.828Z,84.9302
2024-05-09T06:38:58.962Z,84.7746
2024-05-09T06:40:10.069Z,84.6006
2024-05-09T06:41:17.069Z,84.4038
2024-05-09T06:42:23.682Z,84.1932
2024-05-09T06:43:29.894Z,84.1413
2024-05-09T06:44:36.093Z,84.3153
2024-05-09T06:45:42.391Z,84.3107
2024-05-09T06:46:48.563Z,84.2252
2024-05-09T06:48:01.605Z,84.1642
2024-05-09T06:49:09.309Z,84.0269
2024-05-09T06:50:23.912Z,83.6713
2024-05-09T06:51:33.567Z,83.7522
2024-05-09T06:52:43.235Z,83.4653
2024-05-09T06:53:49.636Z,82.8382
2024-05-09T06:54:57.058Z,82.6459
2024-05-09T06:56:26.259Z,82.6947
2024-05-09T06:58:05.378Z,82.7512
2024-05-09T06:59:11.913Z,82.7771
2024-05-09T07:00:26.801Z,82.9206
2024-05-09T07:01:31.063Z,82.8748
2024-05-09T07:02:37.723Z,82.8458
2024-05-09T07:03:45.268Z,82.8153
2024-05-09T07:04:54.763Z,82.9709
2024-05-09T07:06:04.483Z,83.0060
2024-05-09T07:09:06.093Z,83.0396
2024-05-09T07:09:06.093Z,83.0060
2024-05-09T07:10:18.063Z,83.0381
2024-05-09T07:11:31.593Z,82.7955
2024-05-09T07:12:40.747Z,82.4613
2024-05-09T07:13:49.513Z,82.3606
2024-05-09T07:14:55.701Z,82.1927
2024-05-09T07:16:04.759Z,82.0722
2024-05-09T07:17:11.504Z,81.8753
2024-05-09T07:18:19.916Z,81.9760
2024-05-09T07:19:27.034Z,82.3484
2024-05-09T07:20:34.977Z,82.0142
2024-05-09T07:21:45.069Z,81.8158
2024-05-09T07:22:53.933Z,81.5702
2024-05-09T07:24:03.294Z,81.5274
2024-05-09T07:25:10.783Z,81.3077
2024-05-09T07:26:18.818Z,80.9705
2024-05-09T07:27:26.685Z,81.0346
2024-05-09T07:28:33.203Z,80.9918
2024-05-09T07:29:40.089Z,80.9873
2024-05-09T07:30:47.524Z,80.8728
2024-05-09T07:31:53.684Z,80.7187
2024-05-09T07:33:00.720Z,80.6729
2024-05-09T07:34:07.389Z,80.5539
2024-05-09T07:35:15.816Z,80.3830
2024-05-09T07:36:22.546Z,80.2884
2024-05-09T07:37:29.390Z,79.9542
2024-05-09T07:38:36.669Z,80.0626
2024-05-09T07:39:43.364Z,80.3326
2024-05-09T07:40:49.748Z,80.4837
2024-05-09T07:41:56.584Z,80.5432
2024-05-09T07:43:03.104Z,80.4059
2024-05-09T07:44:09.377Z,80.3418
2024-05-09T07:45:38.960Z,80.1144
2024-05-09T07:47:36.441Z,80.0488
2024-05-09T07:49:11.994Z,80.3433
2024-05-09T07:50:35.274Z,80.0137
2024-05-09T07:52:22.652Z,79.4629
2024-05-09T07:53:32.469Z,79.7024
2024-05-09T07:53:44.763Z,79.6017
2024-05-09T07:54:53.218Z,79.6979
2024-05-09T07:55:59.645Z,80.0961
2024-05-09T07:57:05.957Z,79.9451
2024-05-09T07:58:12.166Z,79.8703
2024-05-09T07:59:18.448Z,80.0214
2024-05-09T08:00:30.850Z,79.8444
2024-05-09T08:01:38.107Z,79.7925
2024-05-09T08:02:45.936Z,79.5178
2024-05-09T08:03:52.712Z,79.3179
2024-05-09T08:04:59.712Z,79.0463
2024-05-09T08:06:05.952Z,78.8998
2024-05-09T08:07:12.283Z,78.8037
2024-05-09T08:08:18.547Z,78.6114
2024-05-09T08:09:24.942Z,78.4848
2024-05-09T08:10:31.136Z,78.3154
2024-05-09T08:11:37.791Z,78.1048
2024-05-09T08:12:44.208Z,78.1369
2024-05-09T08:13:50.473Z,78.1674
2024-05-09T08:14:56.911Z,78.0407
2024-05-09T08:16:03.613Z,78.0209
2024-05-09T08:17:10.643Z,77.8286
2024-05-09T08:18:17.300Z,77.8561
2024-05-09T08:19:24.557Z,77.8439
2024-05-09T08:20:33.909Z,77.9995
2024-05-09T08:21:43.308Z,77.9263
2024-05-09T08:22:49.738Z,77.6699
2024-05-09T08:23:56.083Z,77.6150
2024-05-09T08:25:02.479Z,77.8469
2024-05-09T08:26:08.748Z,77.7829
2024-05-09T08:27:15.065Z,77.6913
2024-05-09T08:28:21.349Z,77.9889
2024-05-09T08:29:27.630Z,78.3017
2024-05-09T08:30:37.174Z,78.4344
2024-05-09T08:31:44.928Z,78.4558
2024-05-09T08:32:51.162Z,78.3734
2024-05-09T08:33:57.683Z,78.3658
2024-05-09T08:35:04.223Z,78.5168
2024-05-09T08:36:25.078Z,78.4070
2024-05-09T08:37:36.632Z,78.4482
2024-05-09T08:38:43.431Z,78.4924
2024-05-09T08:39:49.768Z,78.4741
2024-05-09T08:40:55.963Z,78.6023
2024-05-09T08:42:02.110Z,78.5580
2024-05-09T08:43:08.606Z,78.1353
2024-05-09T08:44:15.382Z,77.9339
2024-05-09T08:45:21.452Z,78.0209
2024-05-09T08:46:27.690Z,78.2132
2024-05-09T08:47:34.144Z,77.8897
2024-05-09T08:48:40.642Z,77.4868
2024-05-09T08:49:47.677Z,77.1008
2024-05-09T08:50:54.021Z,77.2534
2024-05-09T08:52:00.262Z,77.2671
2024-05-09T08:53:06.599Z,77.5280
2024-05-09T08:54:12.601Z,77.4777
2024-05-09T08:55:18.836Z,77.3571
2024-05-09T08:56:26.087Z,76.5072
2024-05-09T08:57:32.434Z,76.2875
2024-05-09T08:58:38.510Z,76.3973
2024-05-09T08:59:44.624Z,76.0708
2024-05-09T09:00:50.961Z,76.2829
2024-05-09T09:01:57.687Z,76.0174
2024-05-09T09:03:03.946Z,75.3445
2024-05-09T09:04:10.444Z,75.1644
2024-05-09T09:05:16.998Z,75.5947
2024-05-09T09:06:23.285Z,75.5734
2024-05-09T09:07:29.915Z,75.2743
2024-05-09T09:08:36.061Z,75.5718
2024-05-09T09:09:42.269Z,75.7824
2024-05-09T09:10:48.555Z,75.9487
2024-05-09T09:11:54.782Z,76.1089
2024-05-09T09:13:00.988Z,76.2722
2024-05-09T09:14:07.147Z,75.9655
2024-05-09T09:15:13.553Z,76.0677
2024-05-09T09:16:22.709Z,75.6558
2024-05-09T09:17:29.270Z,75.7931
2024-05-09T09:18:35.589Z,76.0952
2024-05-09T09:19:41.916Z,76.0891
2024-05-09T09:20:48.956Z,76.0708
2024-05-09T09:21:56.022Z,75.9152
2024-05-09T09:23:02.585Z,75.7061
2024-05-09T09:24:09.973Z,75.3246
2024-05-09T09:25:16.373Z,75.0835
2024-05-09T09:26:22.735Z,75.0011
2024-05-09T09:27:29.195Z,74.8837
2024-05-09T09:28:35.284Z,74.7753
2024-05-09T09:29:41.518Z,74.7616
2024-05-09T09:30:47.876Z,74.5129
2024-05-09T09:31:56.702Z,74.0871
2024-05-09T09:33:03.353Z,73.7987
2024-05-09T09:34:09.894Z,73.9055
2024-05-09T09:35:16.147Z,74.3954
2024-05-09T09:36:22.558Z,74.0978
2024-05-09T09:37:29.121Z,74.1711
2024-05-09T09:38:35.831Z,74.4045
2024-05-09T09:39:42.098Z,74.3481
2024-05-09T09:40:50.097Z,74.1436
2024-05-09T09:41:56.565Z,74.5556
2024-05-09T09:43:02.817Z,74.8379
2024-05-09T09:44:09.516Z,75.0698
2024-05-09T09:45:15.643Z,74.3954
2024-05-09T09:46:21.813Z,74.5830
2024-05-09T09:47:28.048Z,74.3709
2024-05-09T09:48:34.685Z,73.7362
2024-05-09T09:49:41.464Z,73.2815
2024-05-09T09:50:48.030Z,73.2006
2024-05-09T09:51:54.478Z,73.5973
2024-05-09T09:53:00.828Z,73.5058
2024-05-09T09:54:07.179Z,73.2601
2024-05-09T09:55:14.193Z,73.1640
2024-05-09T09:56:20.351Z,72.5307
2024-05-09T09:57:26.760Z,72.0836
2024-05-09T09:58:32.846Z,71.5938
2024-05-09T09:59:38.887Z,71.1665
2024-05-09T10:00:46.307Z,71.7159
2024-05-09T10:01:52.888Z,71.8166
2024-05-09T10:02:59.562Z,71.4549
2024-05-09T10:04:07.416Z,70.7271
2024-05-09T10:05:13.952Z,70.5898
2024-05-09T10:06:20.420Z,69.9672
2024-05-09T10:07:26.663Z,69.2622
2024-05-09T10:08:33.173Z,69.1722
2024-05-09T10:09:39.415Z,69.2271
2024-05-09T10:10:46.325Z,69.5293
2024-05-09T10:11:59.701Z,68.3238
2024-05-09T10:13:05.911Z,68.3192
2024-05-09T10:14:12.577Z,68.4977
2024-05-09T10:15:18.961Z,67.9088
2024-05-09T10:16:25.722Z,67.7623
2024-05-09T10:17:32.772Z,67.2023
2024-05-09T10:18:39.553Z,67.1427
2024-05-09T10:19:46.259Z,67.9362
2024-05-09T10:20:52.626Z,67.4556
2024-05-09T10:21:58.924Z,67.7333
2024-05-09T10:23:20.215Z,66.9871
2024-05-09T10:24:26.546Z,66.9703
2024-05-09T10:25:32.823Z,67.1473
2024-05-09T10:26:39.099Z,66.5492
2024-05-09T10:27:45.435Z,65.9953
2024-05-09T10:28:51.601Z,65.0690
2024-05-09T10:29:57.829Z,64.9378
2024-05-09T10:31:04.077Z,64.2817
2024-05-09T10:32:10.474Z,65.0431
2024-05-09T10:33:16.665Z,64.9332
2024-05-09T10:34:23.364Z,65.5055
2024-05-09T10:35:29.450Z,64.8875
2024-05-09T10:36:35.770Z,65.3803
2024-05-09T10:37:41.939Z,64.8585
2024-05-09T10:38:48.200Z,64.8142
2024-05-09T10:39:54.474Z,65.3345
2024-05-09T10:41:00.637Z,65.7481
2024-05-09T10:42:07.140Z,65.3681
2024-05-09T10:43:13.348Z,65.9892
2024-05-09T10:44:19.569Z,66.6392
2024-05-09T10:45:25.636Z,67.2251
2024-05-09T10:46:32.057Z,67.5593
2024-05-09T10:47:39.264Z,67.3030
2024-05-09T10:48:45.640Z,66.7735
2024-05-09T10:49:52.674Z,66.6301
2024-05-09T10:50:59.167Z,66.7628
2024-05-09T10:52:05.255Z,66.9230
2024-05-09T10:53:11.451Z,67.9820
2024-05-09T10:54:20.531Z,68.0369
2024-05-09T10:55:26.870Z,68.0644
2024-05-09T10:56:33.141Z,68.5573
2024-05-09T10:57:39.574Z,68.7190
2024-05-09T10:58:45.676Z,69.0562
2024-05-09T10:59:54.641Z,68.6259
2024-05-09T11:01:05.462Z,67.9118
2024-05-09T11:02:14.014Z,67.0710
2024-05-09T11:03:20.851Z,67.0375
2024-05-09T11:04:27.058Z,66.7948
2024-05-09T11:05:33.477Z,66.4210
2024-05-09T11:06:40.408Z,65.0919
2024-05-09T11:07:47.189Z,64.2237
2024-05-09T11:08:53.331Z,63.5233
2024-05-09T11:10:00.104Z,63.3158
2024-05-09T11:11:08.233Z,63.4775
2024-05-09T11:12:15.786Z,63.5782
2024-05-09T11:13:22.420Z,63.1754
2024-05-09T11:14:29.779Z,62.8870
2024-05-09T11:15:36.395Z,63.1144
2024-05-09T11:17:11.317Z,64.0803
2024-05-09T11:18:15.947Z,64.0162
2024-05-09T11:19:20.992Z,63.7324
2024-05-09T11:20:29.739Z,64.0528
2024-05-09T11:21:34.685Z,64.6540
2024-05-09T11:22:38.815Z,64.8005
2024-05-09T11:23:43.321Z,63.7598
2024-05-09T11:24:48.299Z,60.3174
2024-05-09T11:25:52.470Z,58.5336
2024-05-09T11:26:56.538Z,59.1974
2024-05-09T11:28:00.687Z,59.6445
2024-05-09T11:29:05.816Z,59.7696
2024-05-09T11:30:14.457Z,58.8846
2024-05-09T11:31:20.043Z,58.7945
2024-05-09T11:32:24.260Z,59.8688
2024-05-09T11:33:28.912Z,60.4730
2024-05-09T11:34:35.238Z,59.7604
2024-05-09T11:35:39.368Z,60.1724
2024-05-09T11:36:43.579Z,61.5625
2024-05-09T11:37:47.769Z,62.4659
2024-05-09T11:38:52.364Z,63.4806
2024-05-09T11:39:56.628Z,63.8621
2024-05-09T11:41:00.925Z,64.0681
2024-05-09T11:42:05.829Z,64.0360
2024-05-09T11:43:10.127Z,63.6088
2024-05-09T11:44:14.425Z,63.6454
2024-05-09T11:45:18.511Z,63.6957
2024-05-09T11:46:23.510Z,63.5142
2024-05-09T11:47:27.511Z,63.3219
2024-05-09T11:48:31.801Z,62.9419
2024-05-09T11:49:36.190Z,63.2197
2024-05-09T11:50:40.203Z,63.5645
2024-05-09T11:51:44.396Z,63.1235
2024-05-09T11:52:48.466Z,62.6520
2024-05-09T11:53:52.711Z,62.5101
2024-05-09T11:54:56.838Z,63.2120
2024-05-09T11:56:01.065Z,63.9704
2024-05-09T11:57:05.324Z,64.4846
2024-05-09T11:58:09.549Z,64.9866
2024-05-09T11:59:13.719Z,65.3132
2024-05-09T12:00:25.214Z,64.6662
2024-05-09T12:01:28.346Z,64.2863
2024-05-09T12:02:33.083Z,64.7318
2024-05-09T12:03:37.546Z,63.7797
2024-05-09T12:04:41.921Z,63.5081
2024-05-09T12:05:46.447Z,62.9465
2024-05-09T12:06:50.784Z,63.2654
2024-05-09T12:07:56.056Z,63.1434
2024-05-09T12:09:00.240Z,63.1617
2024-05-09T12:10:06.059Z,62.4475
2024-05-09T12:11:14.905Z,61.1872
2024-05-09T12:12:19.060Z,61.6037
2024-05-09T12:13:23.341Z,61.2207
2024-05-09T12:14:27.617Z,61.7197
2024-05-09T12:15:31.924Z,61.8570
2024-05-09T12:16:36.322Z,61.7090
2024-05-09T12:17:40.600Z,61.5534
2024-05-09T12:18:45.620Z,60.7217
2024-05-09T12:19:49.908Z,61.3062
2024-05-09T12:20:54.129Z,61.6510
2024-05-09T12:21:58.454Z,62.6108
2024-05-09T12:23:02.616Z,62.1210
2024-05-09T12:24:06.855Z,62.0615
2024-05-09T12:25:11.889Z,62.1546
2024-05-09T12:26:16.130Z,62.2812
2024-05-09T12:27:21.316Z,62.1530
2024-05-09T12:28:25.642Z,61.4939
2024-05-09T12:29:30.022Z,61.6465
2024-05-09T12:30:38.062Z,61.9883
2024-05-09T12:31:44.504Z,58.6969
2024-05-09T12:32:48.952Z,58.4009
2024-05-09T12:33:53.323Z,59.0509
2024-05-09T12:34:57.764Z,59.0265
2024-05-09T12:36:02.015Z,56.3485
2024-05-09T12:37:06.218Z,55.2270
2024-05-09T12:38:11.265Z,55.5489
2024-05-09T12:39:15.548Z,56.9619
2024-05-09T12:40:31.831Z,56.9070
2024-05-09T12:41:59.919Z,56.1654
2024-05-09T12:43:09.997Z,55.3368
2024-05-09T12:44:18.058Z,56.8338
2024-05-09T12:45:23.274Z,56.6888
2024-05-09T12:46:36.802Z,56.0388
2024-05-09T12:47:50.557Z,55.0805
2024-05-09T12:49:07.336Z,55.4437
2024-05-09T12:50:29.876Z,56.4401
2024-05-09T12:51:32.345Z,56.5927
2024-05-09T12:52:39.299Z,56.7208
2024-05-09T12:54:04.169Z,58.1796
2024-05-09T12:55:16.614Z,58.1811
2024-05-09T12:56:30.315Z,58.7289
2024-05-09T12:57:44.816Z,57.6135
2024-05-09T12:58:59.080Z,57.5250
2024-05-09T13:00:14.176Z,58.0987
2024-05-09T13:01:24.178Z,58.6328
2024-05-09T13:02:34.052Z,58.7854
2024-05-09T13:03:45.989Z,58.6374
2024-05-09T13:05:07.809Z,58.6328
2024-05-09T13:06:12.133Z,58.4222
2024-05-09T13:07:18.941Z,59.0555
2024-05-09T13:08:23.271Z,58.5519
2024-05-09T13:09:28.914Z,57.9522
2024-05-09T13:10:33.768Z,58.2071
2024-05-09T13:11:38.514Z,57.2824
2024-05-09T13:12:44.667Z,56.5194
2024-05-09T13:13:49.286Z,55.6771
2024-05-09T13:14:55.024Z,55.6222
2024-05-09T13:16:00.430Z,55.9014
2024-05-09T13:17:04.519Z,56.4172
2024-05-09T13:18:10.491Z,55.1080
2024-05-09T13:19:15.500Z,54.4366
2024-05-09T13:20:29.118Z,50.9148
2024-05-09T13:21:30.648Z,50.8385
2024-05-09T13:22:34.830Z,52.2484
2024-05-09T13:23:39.450Z,52.2515
2024-05-09T13:24:43.867Z,53.3181
2024-05-09T13:25:48.424Z,53.8216
2024-05-09T13:26:52.865Z,54.9798
2024-05-09T13:27:57.794Z,55.2590
2024-05-09T13:29:02.535Z,55.6481
2024-05-09T13:30:11.873Z,54.2565
2024-05-09T13:31:18.423Z,54.5190
2024-05-09T13:32:23.292Z,54.6502
2024-05-09T13:33:28.255Z,54.3954
2024-05-09T13:34:32.846Z,55.0072
2024-05-09T13:35:38.277Z,55.2743
2024-05-09T13:36:42.883Z,55.7733
2024-05-09T13:37:48.667Z,56.3256
2024-05-09T13:38:53.093Z,55.8328
2024-05-09T13:39:58.152Z,55.2560
2024-05-09T13:41:02.786Z,55.3887
2024-05-09T13:42:07.501Z,55.5291
2024-05-09T13:43:12.366Z,55.6817
2024-05-09T13:44:17.237Z,55.7397
2024-05-09T13:45:21.383Z,56.1028
2024-05-09T13:46:25.886Z,55.6130
2024-05-09T13:47:32.163Z,55.0637
2024-05-09T13:48:36.774Z,54.6792
2024-05-09T13:49:42.181Z,53.9101
2024-05-09T13:50:47.458Z,54.6593
2024-05-09T13:51:52.009Z,55.6130
2024-05-09T13:52:56.479Z,55.8724
2024-05-09T13:54:00.737Z,56.2631
2024-05-09T13:55:05.101Z,56.1517
2024-05-09T13:56:10.126Z,56.0784
2024-05-09T13:57:17.400Z,56.4599
2024-05-09T13:58:23.050Z,56.7758
2024-05-09T13:59:31.379Z,56.8627
2024-05-09T14:00:44.358Z,57.1191
2024-05-09T14:01:47.203Z,57.0489
2024-05-09T14:02:51.948Z,55.8831
2024-05-09T14:03:58.045Z,55.3964
2024-05-09T14:05:02.621Z,55.2056
2024-05-09T14:06:09.432Z,54.2519
2024-05-09T14:07:17.978Z,54.8028
2024-05-09T14:08:23.702Z,55.2789
2024-05-09T14:09:28.475Z,55.4009
2024-05-09T14:10:33.797Z,55.5108
2024-05-09T14:11:38.689Z,54.8745
2024-05-09T14:12:42.974Z,55.2773
2024-05-09T14:13:48.102Z,55.9548
2024-05-09T14:14:52.339Z,56.1761
2024-05-09T14:15:56.804Z,55.9564
2024-05-09T14:17:01.294Z,56.6598
2024-05-09T14:18:08.107Z,56.2112
2024-05-09T14:19:14.320Z,56.4126
2024-05-09T14:20:28.301Z,57.0764
2024-05-09T14:21:29.741Z,56.7758
2024-05-09T14:22:34.450Z,56.8719
2024-05-09T14:23:39.368Z,55.9197
2024-05-09T14:24:45.664Z,54.8928
2024-05-09T14:25:51.973Z,54.2855
2024-05-09T14:26:57.167Z,54.3847
2024-05-09T14:28:01.485Z,55.2178
2024-05-09T14:29:06.392Z,53.5653
2024-05-09T14:30:18.138Z,49.8939
2024-05-09T14:31:21.067Z,51.5984
2024-05-09T14:32:25.247Z,50.3166
2024-05-09T14:33:31.097Z,47.2953
2024-05-09T14:36:47.627Z,47.2480
2024-05-09T14:36:47.627Z,45.0523
2024-05-09T14:38:06.869Z,49.6330
2024-05-09T14:39:37.228Z,52.1385
2024-05-09T14:41:19.979Z,53.5119
2024-05-09T14:42:25.645Z,53.3608
2024-05-09T14:43:35.121Z,54.0658